Time;durP1;ratioP1;P1;durP2;ratioP2;P2;SDS_P1;SDS_P2;PMS_P1;PMS_P2;Temp;Humidity;BMP_temperature;BMP_pressure;BME280_temperature;BME280_humidity;BME280_pressure;Samples;Min_cycle;Max_cycle;Signal;HPM_P1;HPM_P2
2023/10/18 00:01:33;;;;;;;10.27;9.27;;;9.80;99.90;;;;;;4937407;29;20221;-87
2023/10/18 00:04:00;;;;;;;13.85;10.40;;;9.80;99.90;;;;;;4935074;29;20232;-85
2023/10/18 00:06:54;;;;;;;9.60;8.70;;;9.70;99.90;;;;;;4929534;29;20250;-85
2023/10/18 00:09:38;;;;;;;10.30;9.18;;;9.70;99.90;;;;;;4929149;29;20308;-79
2023/10/18 00:12:07;;;;;;;10.98;9.40;;;9.70;99.90;;;;;;4924425;28;20658;-80
2023/10/18 00:14:35;;;;;;;11.18;9.50;;;9.70;99.90;;;;;;4933861;29;20324;-80
2023/10/18 00:17:06;;;;;;;13.85;10.52;;;9.70;99.90;;;;;;4934600;29;20245;-83
2023/10/18 00:19:38;;;;;;;12.07;10.10;;;9.70;99.90;;;;;;4933039;28;20679;-80
2023/10/18 00:22:09;;;;;;;26.27;20.38;;;9.70;99.90;;;;;;4930780;28;20229;-80
2023/10/18 00:24:36;;;;;;;9.85;8.85;;;9.70;99.90;;;;;;4936481;29;20727;-82
2023/10/18 00:27:04;;;;;;;13.52;8.85;;;9.60;99.90;;;;;;4933722;29;20275;-82
2023/10/18 00:29:31;;;;;;;11.00;9.90;;;9.70;99.90;;;;;;4934366;28;20228;-83
2023/10/18 00:31:59;;;;;;;10.13;8.63;;;9.60;99.90;;;;;;4930511;29;20841;-82
2023/10/18 00:34:28;;;;;;;9.48;8.55;;;9.60;99.90;;;;;;4935400;29;20619;-82
2023/10/18 00:37:04;;;;;;;11.63;8.77;;;9.70;99.90;;;;;;4924755;29;20245;-83
2023/10/18 00:39:32;;;;;;;8.38;7.03;;;9.70;99.90;;;;;;4936630;29;20244;-82
2023/10/18 00:42:23;;;;;;;10.75;7.93;;;9.70;99.90;;;;;;4929630;29;20510;-83
2023/10/18 00:44:52;;;;;;;8.15;7.25;;;9.70;99.90;;;;;;4923857;29;20286;-83
2023/10/18 00:47:19;;;;;;;8.10;7.15;;;9.70;99.90;;;;;;4925095;29;20232;-79
2023/10/18 00:49:52;;;;;;;9.70;8.68;;;9.70;99.90;;;;;;4918870;29;20300;-79
2023/10/18 00:52:20;;;;;;;10.93;8.43;;;9.70;99.90;;;;;;4920078;29;20268;-82
2023/10/18 00:54:48;;;;;;;8.13;6.70;;;9.70;99.90;;;;;;4919208;29;20308;-79
2023/10/18 00:57:20;;;;;;;9.40;6.88;;;9.70;99.90;;;;;;4945016;28;20332;-82
2023/10/18 00:59:52;;;;;;;9.38;6.60;;;9.70;99.90;;;;;;4958057;28;20730;-83
2023/10/18 01:02:27;;;;;;;8.10;7.30;;;9.60;99.90;;;;;;4962199;28;20216;-82
2023/10/18 01:04:56;;;;;;;8.00;6.82;;;9.60;99.90;;;;;;4951463;28;20235;-83
2023/10/18 01:07:25;;;;;;;11.07;8.75;;;9.60;99.90;;;;;;4938629;29;20228;-80
2023/10/18 01:09:55;;;;;;;9.75;8.15;;;9.60;99.90;;;;;;4938700;29;20315;-80
2023/10/18 01:15:43;;;;;;;10.55;8.45;;;9.60;99.90;;;;;;4934317;28;20232;-80
2023/10/18 01:18:11;;;;;;;8.40;7.50;;;9.60;99.90;;;;;;4937438;28;20216;-83
2023/10/18 01:21:30;;;;;;;8.55;7.30;;;9.50;99.90;;;;;;4959347;28;20243;-79
2023/10/18 01:24:05;;;;;;;14.40;10.77;;;9.50;99.90;;;;;;4934942;28;20308;-80
2023/10/18 01:27:08;;;;;;;;;;;;;;;;;;;;;
2023/10/18 01:29:43;;;;;;;8.32;7.63;;;9.50;99.90;;;;;;4919765;29;20303;-81
2023/10/18 01:33:09;;;;;;;7.15;6.45;;;9.50;99.90;;;;;;4936435;28;20220;-81
2023/10/18 01:36:12;;;;;;;10.55;8.00;;;9.50;99.90;;;;;;4878820;29;20231;-80
2023/10/18 01:38:56;;;;;;;10.57;8.50;;;9.40;99.90;;;;;;4932237;28;20223;-82
2023/10/18 01:45:08;;;;;;;10.70;8.32;;;9.30;99.90;;;;;;4924265;28;20706;-81
2023/10/18 01:47:48;;;;;;;11.23;10.13;;;9.20;99.90;;;;;;4929673;28;20221;-79
2023/10/18 01:50:21;;;;;;;12.48;11.07;;;9.20;99.90;;;;;;4940390;28;20698;-82
2023/10/18 01:56:09;;;;;;;13.15;11.27;;;9.10;99.90;;;;;;4930971;28;20319;-84
2023/10/18 02:02:06;;;;;;;18.17;12.63;;;9.00;99.90;;;;;;4921595;28;20310;-81
2023/10/18 02:04:49;;;;;;;15.15;11.93;;;8.90;99.90;;;;;;4940455;28;20228;-80
2023/10/18 02:07:38;;;;;;;13.27;11.98;;;8.90;99.90;;;;;;4927572;28;20238;-80
2023/10/18 02:10:22;;;;;;;15.18;13.60;;;8.80;99.90;;;;;;4936022;28;20226;-83
2023/10/18 02:12:52;;;;;;;15.95;14.23;;;8.80;99.90;;;;;;4921657;29;20243;-81
2023/10/18 02:15:24;;;;;;;16.10;14.55;;;8.80;99.90;;;;;;4932979;29;20247;-81
2023/10/18 02:18:05;;;;;;;17.85;15.35;;;8.70;99.90;;;;;;4934607;29;20235;-81
2023/10/18 02:21:02;;;;;;;17.55;14.55;;;8.70;99.90;;;;;;4937627;29;20223;-83
2023/10/18 02:26:31;;;;;;;13.70;11.68;;;8.60;99.90;;;;;;4926911;29;20737;-80
2023/10/18 02:32:42;;;;;;;;;;;;;;;;;;;;;
2023/10/18 02:35:40;;;;;;;19.25;13.27;;;8.50;99.90;;;;;;4948180;29;20551;-84
2023/10/18 02:38:18;;;;;;;13.93;12.18;;;8.50;99.90;;;;;;4924506;29;20227;-82
2023/10/18 02:40:56;;;;;;;14.65;12.02;;;8.50;99.90;;;;;;4942147;29;20315;-84
2023/10/18 02:43:37;;;;;;;12.63;11.07;;;8.50;99.90;;;;;;4934938;29;20597;-84
2023/10/18 02:46:20;;;;;;;13.10;11.32;;;8.50;99.90;;;;;;4939576;29;20244;-78
2023/10/18 02:49:01;;;;;;;14.30;11.60;;;8.50;99.90;;;;;;4939896;29;20567;-80
2023/10/18 02:52:03;;;;;;;12.88;11.10;;;8.50;99.90;;;;;;4937091;29;20603;-82
2023/10/18 02:57:49;;;;;;;12.23;10.93;;;8.60;99.90;;;;;;4864562;29;20238;-80
2023/10/18 03:00:25;;;;;;;12.57;11.38;;;8.60;99.90;;;;;;4853477;29;20231;-83
2023/10/18 03:03:01;;;;;;;11.93;10.57;;;8.50;99.90;;;;;;4860781;29;20297;-79
2023/10/18 03:05:51;;;;;;;14.85;11.90;;;8.60;99.90;;;;;;4865600;29;20803;-82
2023/10/18 03:08:20;;;;;;;14.43;10.95;;;8.50;99.90;;;;;;4873229;29;20264;-83
2023/10/18 03:11:13;;;;;;;17.33;13.07;;;8.50;99.90;;;;;;4923569;29;20233;-83
2023/10/18 03:14:01;;;;;;;17.38;13.10;;;8.50;99.90;;;;;;4929080;29;20229;-80
2023/10/18 03:16:40;;;;;;;14.57;12.45;;;8.40;99.90;;;;;;4911119;29;20284;-85
2023/10/18 03:19:24;;;;;;;16.33;12.65;;;8.40;99.90;;;;;;4924353;29;20244;-80
2023/10/18 03:27:49;;;;;;;13.85;10.50;;;8.30;99.90;;;;;;4924359;29;20217;-83
2023/10/18 03:30:18;;;;;;;13.02;11.73;;;8.30;99.90;;;;;;4906730;29;20285;-81
2023/10/18 03:32:54;;;;;;;14.73;11.48;;;8.30;99.90;;;;;;4914018;29;20256;-79
2023/10/18 03:35:39;;;;;;;13.90;10.90;;;8.30;99.90;;;;;;4920771;29;20232;-81
2023/10/18 03:40:57;;;;;;;12.55;11.25;;;8.30;99.90;;;;;;4904708;29;20221;-80
2023/10/18 03:44:03;;;;;;;12.40;11.02;;;8.20;99.90;;;;;;4922187;29;20320;-80
2023/10/18 03:49:44;;;;;;;13.95;11.45;;;8.20;99.90;;;;;;4909446;29;20233;-83
2023/10/18 03:52:21;;;;;;;12.75;8.68;;;8.20;99.90;;;;;;4913268;29;20248;-84
2023/10/18 03:58:01;;;;;;;13.07;11.32;;;8.20;99.90;;;;;;4941482;28;20224;-83
2023/10/18 04:00:54;;;;;;;17.70;10.40;;;8.10;99.90;;;;;;4941351;29;20279;-84
2023/10/18 04:07:01;;;;;;;13.80;12.38;;;8.00;99.90;;;;;;4864595;29;20743;-81
2023/10/18 04:10:06;;;;;;;;;;;;;;;;;;;;;
2023/10/18 04:12:57;;;;;;;10.65;9.13;;;8.00;99.90;;;;;;4951056;28;20234;-84
2023/10/18 04:16:17;;;;;;;13.10;10.48;;;7.90;99.90;;;;;;4961352;28;20292;-84
2023/10/18 04:18:56;;;;;;;13.82;9.43;;;8.00;99.90;;;;;;4954009;28;20235;-83
2023/10/18 04:21:29;;;;;;;10.60;9.32;;;8.00;99.90;;;;;;4952467;28;20710;-83
2023/10/18 04:26:56;;;;;;;12.07;9.82;;;8.00;99.90;;;;;;4919747;28;20229;-80
2023/10/18 04:29:33;;;;;;;10.27;9.25;;;8.00;99.90;;;;;;4961846;28;20230;-81
2023/10/18 04:32:03;;;;;;;11.95;10.40;;;8.10;99.90;;;;;;4959521;28;20239;-83
2023/10/18 04:34:35;;;;;;;11.18;9.85;;;8.00;99.90;;;;;;4959747;28;20238;-80
2023/10/18 04:37:09;;;;;;;12.15;9.80;;;8.00;99.90;;;;;;4956468;28;20235;-79
2023/10/18 04:39:38;;;;;;;11.80;9.20;;;8.00;99.90;;;;;;4958827;28;20243;-83
2023/10/18 04:42:06;;;;;;;10.35;9.43;;;8.00;99.90;;;;;;4957488;28;20275;-79
2023/10/18 04:44:34;;;;;;;10.52;9.57;;;8.00;99.90;;;;;;4959593;28;20236;-83
2023/10/18 04:47:14;;;;;;;12.18;10.70;;;8.00;99.90;;;;;;4958737;28;20299;-79
2023/10/18 04:50:00;;;;;;;11.68;10.00;;;8.10;99.90;;;;;;4957856;28;20228;-83
2023/10/18 04:52:28;;;;;;;13.93;9.88;;;8.10;99.90;;;;;;4958278;28;20289;-83
2023/10/18 04:55:04;;;;;;;12.05;10.52;;;8.10;99.90;;;;;;4958441;28;20240;-83
2023/10/18 04:57:38;;;;;;;12.40;9.88;;;8.10;99.90;;;;;;4959358;28;20753;-82
2023/10/18 05:00:10;;;;;;;11.23;9.23;;;8.10;99.90;;;;;;4958070;28;20283;-80
2023/10/18 05:02:38;;;;;;;11.02;9.93;;;8.10;99.90;;;;;;4956767;28;20279;-79
2023/10/18 05:05:10;;;;;;;10.27;9.25;;;8.10;99.90;;;;;;4955984;28;20231;-80
2023/10/18 05:07:41;;;;;;;13.25;10.07;;;8.10;99.90;;;;;;4944005;28;20228;-79
2023/10/18 05:10:14;;;;;;;14.25;11.25;;;8.20;99.90;;;;;;4955601;28;20290;-79
2023/10/18 05:12:47;;;;;;;13.02;9.07;;;8.20;99.90;;;;;;4949144;28;20315;-80
2023/10/18 05:15:18;;;;;;;10.23;9.20;;;8.20;99.90;;;;;;4956861;28;20228;-80
2023/10/18 05:17:47;;;;;;;10.18;8.88;;;8.20;99.90;;;;;;4959685;28;20254;-83
2023/10/18 05:20:22;;;;;;;12.05;10.23;;;8.20;99.90;;;;;;4957877;28;20228;-83
2023/10/18 05:22:52;;;;;;;10.77;9.68;;;8.20;99.90;;;;;;4958202;28;20287;-83
2023/10/18 05:25:30;;;;;;;10.90;9.63;;;8.20;99.90;;;;;;4957992;28;20246;-83
2023/10/18 05:28:09;;;;;;;10.10;9.10;;;8.20;99.90;;;;;;4941071;28;20219;-83
2023/10/18 05:39:27;;;;;;;12.73;10.73;;;8.10;99.90;;;;;;4933457;28;20232;-84
2023/10/18 05:42:03;;;;;;;11.02;9.90;;;8.20;99.90;;;;;;4957053;28;20231;-82
2023/10/18 05:44:30;;;;;;;13.43;10.23;;;8.20;99.90;;;;;;4956901;28;20642;-83
2023/10/18 05:46:59;;;;;;;14.48;9.60;;;8.20;99.90;;;;;;4956628;28;20224;-82
2023/10/18 05:49:28;;;;;;;10.82;9.70;;;8.20;99.90;;;;;;4957289;28;20228;-80
2023/10/18 05:52:15;;;;;;;11.30;10.10;;;8.20;99.90;;;;;;4956978;28;20751;-82
2023/10/18 05:54:45;;;;;;;11.50;10.52;;;8.20;99.90;;;;;;4956677;28;20231;-80
2023/10/18 05:57:16;;;;;;;15.55;11.60;;;8.20;99.90;;;;;;4955310;28;20228;-79
2023/10/18 05:59:48;;;;;;;15.07;12.02;;;8.20;99.90;;;;;;4945883;28;20372;-80
2023/10/18 06:02:22;;;;;;;14.35;11.25;;;8.20;99.90;;;;;;4955484;28;20236;-79
2023/10/18 06:04:51;;;;;;;14.85;11.23;;;8.30;99.90;;;;;;4955070;28;20264;-79
2023/10/18 06:07:22;;;;;;;14.40;11.60;;;8.30;99.90;;;;;;4947207;28;20227;-80
2023/10/18 06:09:57;;;;;;;21.02;11.82;;;8.30;99.90;;;;;;4954941;28;20232;-80
2023/10/18 06:12:46;;;;;;;13.93;12.43;;;8.30;99.90;;;;;;4955609;28;20311;-79
2023/10/18 06:15:14;;;;;;;13.88;11.50;;;8.20;99.90;;;;;;4955707;28;20586;-79
2023/10/18 06:17:53;;;;;;;15.00;11.32;;;8.20;99.90;;;;;;4955082;28;20220;-80
2023/10/18 06:20:27;;;;;;;15.93;12.73;;;8.30;99.90;;;;;;4960272;28;20246;-80
2023/10/18 06:23:08;;;;;;;13.63;10.73;;;8.30;99.90;;;;;;4955537;28;20310;-79
2023/10/18 06:25:37;;;;;;;13.90;12.55;;;8.40;99.90;;;;;;5041643;23;20223;-80
2023/10/18 06:28:07;;;;;;;14.15;12.57;;;8.40;99.90;;;;;;4955490;29;20265;-80
2023/10/18 06:30:39;;;;;;;14.77;13.40;;;8.50;99.90;;;;;;4954058;29;20291;-79
2023/10/18 06:33:07;;;;;;;14.38;11.82;;;8.50;99.90;;;;;;4954321;29;20220;-80
2023/10/18 06:35:42;;;;;;;14.25;11.27;;;8.50;99.90;;;;;;4954860;29;20294;-83
2023/10/18 06:38:17;;;;;;;13.45;12.07;;;8.50;99.90;;;;;;4955232;29;20270;-79
2023/10/18 06:40:50;;;;;;;12.43;11.00;;;8.50;99.90;;;;;;4954813;29;20290;-83
2023/10/18 06:43:20;;;;;;;16.35;11.82;;;8.50;99.90;;;;;;4955222;29;20231;-83
2023/10/18 06:45:48;;;;;;;11.60;10.32;;;8.50;99.90;;;;;;4954502;29;20678;-80
2023/10/18 06:48:16;;;;;;;13.75;10.20;;;8.60;99.90;;;;;;4953996;29;20223;-80
2023/10/18 06:50:46;;;;;;;11.68;9.27;;;8.60;99.90;;;;;;4946684;29;20262;-83
2023/10/18 06:53:15;;;;;;;13.00;10.15;;;8.60;99.90;;;;;;4955128;29;20219;-84
2023/10/18 06:55:54;;;;;;;10.98;8.80;;;8.60;99.90;;;;;;4954641;29;20232;-80
2023/10/18 06:58:41;;;;;;;13.60;9.18;;;8.70;99.90;;;;;;4955302;29;20224;-80
2023/10/18 07:01:14;;;;;;;11.68;10.38;;;8.80;99.90;;;;;;4993596;28;20222;-80
2023/10/18 07:03:42;;;;;;;9.43;8.52;;;8.80;99.90;;;;;;4994066;28;20617;-84
2023/10/18 07:06:16;;;;;;;15.25;9.27;;;8.80;99.90;;;;;;4993776;28;20230;-84
2023/10/18 07:08:45;;;;;;;13.43;10.90;;;8.90;99.90;;;;;;4993838;28;20263;-81
2023/10/18 07:11:17;;;;;;;8.90;8.00;;;8.90;99.90;;;;;;4993599;28;20222;-84
2023/10/18 07:16:35;;;;;;;9.25;8.35;;;9.00;99.90;;;;;;5096783;23;20226;-84
2023/10/18 07:19:06;;;;;;;12.15;9.55;;;9.00;99.90;;;;;;4993344;28;20233;-84
2023/10/18 07:21:34;;;;;;;11.23;9.77;;;9.00;99.90;;;;;;4993303;28;20233;-84
2023/10/18 07:24:09;;;;;;;10.18;9.27;;;9.10;99.90;;;;;;4993144;28;20246;-84
2023/10/18 07:26:36;;;;;;;11.20;8.70;;;9.10;99.90;;;;;;4974280;28;20231;-84
2023/10/18 07:29:06;;;;;;;9.77;8.82;;;9.20;99.90;;;;;;4974386;28;20291;-84
2023/10/18 07:31:38;;;;;;;11.27;10.18;;;9.30;99.90;;;;;;4974388;28;20234;-84
2023/10/18 07:34:08;;;;;;;11.32;10.07;;;9.30;99.90;;;;;;4977160;28;20239;-84
2023/10/18 07:36:37;;;;;;;13.13;11.40;;;9.40;99.90;;;;;;4977458;28;20223;-80
2023/10/18 07:39:22;;;;;;;;;;;;;;;;;;;;;
2023/10/18 07:41:51;;;;;;;11.57;10.45;;;9.50;99.90;;;;;;4976966;28;20231;-84
2023/10/18 07:44:18;;;;;;;13.27;11.98;;;9.60;99.90;;;;;;4977970;28;20227;-79
2023/10/18 07:46:45;;;;;;;14.57;10.85;;;9.60;99.90;;;;;;4977363;28;20250;-83
2023/10/18 07:49:16;;;;;;;12.48;10.20;;;9.70;99.90;;;;;;4962429;28;20274;-84
2023/10/18 07:51:50;;;;;;;17.13;12.93;;;9.80;99.90;;;;;;4976595;28;20223;-84
2023/10/18 07:54:21;;;;;;;15.52;11.45;;;9.80;99.90;;;;;;4977077;28;20242;-80
2023/10/18 07:56:54;;;;;;;12.93;9.80;;;9.80;99.90;;;;;;4976913;28;20295;-83
2023/10/18 07:59:32;;;;;;;11.70;10.13;;;9.90;99.90;;;;;;4968088;28;20315;-84
2023/10/18 08:02:15;;;;;;;11.25;10.05;;;9.90;99.90;;;;;;4975986;28;20239;-84
2023/10/18 08:04:44;;;;;;;13.18;9.95;;;10.00;99.90;;;;;;4975797;28;20262;-81
2023/10/18 08:07:15;;;;;;;10.38;9.30;;;10.10;99.90;;;;;;4974822;28;20223;-85
2023/10/18 08:09:48;;;;;;;10.50;9.35;;;10.10;99.90;;;;;;4966551;28;20238;-80
2023/10/18 08:12:33;;;;;;;13.40;9.20;;;10.20;99.90;;;;;;4976119;28;20290;-80
2023/10/18 08:15:13;;;;;;;17.17;9.00;;;10.30;99.90;;;;;;4950278;28;20563;-84
2023/10/18 08:17:49;;;;;;;10.10;9.10;;;10.30;99.90;;;;;;4975905;28;20231;-85
2023/10/18 08:26:21;;;;;;;13.68;10.55;;;10.50;99.90;;;;;;4965518;28;20238;-80
2023/10/18 08:28:53;;;;;;;10.00;9.00;;;10.50;99.90;;;;;;4959702;28;20233;-80
2023/10/18 08:34:05;;;;;;;12.18;10.73;;;10.60;99.90;;;;;;4974222;28;20246;-80
2023/10/18 08:36:32;;;;;;;11.85;10.57;;;10.70;99.90;;;;;;4975588;28;20227;-83
2023/10/18 08:39:06;;;;;;;9.48;8.57;;;10.70;99.90;;;;;;4976011;28;20231;-84
2023/10/18 08:41:37;;;;;;;15.80;9.15;;;10.80;99.90;;;;;;4975857;28;20227;-84
2023/10/18 08:44:16;;;;;;;10.80;9.00;;;10.80;99.90;;;;;;4976010;28;20220;-83
2023/10/18 08:46:52;;;;;;;11.00;9.98;;;10.90;99.90;;;;;;4966809;28;20254;-83
2023/10/18 08:49:23;;;;;;;10.95;9.65;;;11.00;99.90;;;;;;4976349;28;20231;-83
2023/10/18 08:51:56;;;;;;;11.98;10.88;;;11.00;99.90;;;;;;4975990;28;20242;-83
2023/10/18 08:54:24;;;;;;;9.05;8.18;;;11.00;99.90;;;;;;4971462;28;20223;-85
2023/10/18 08:57:24;;;;;;;14.10;9.52;;;11.10;99.90;;;;;;4969936;28;20274;-84
2023/10/18 08:59:51;;;;;;;16.48;9.93;;;11.10;99.90;;;;;;4954272;28;20223;-84
2023/10/18 09:02:20;;;;;;;10.93;9.05;;;11.10;99.90;;;;;;4968695;28;20231;-80
2023/10/18 09:04:55;;;;;;;10.68;9.60;;;11.20;99.90;;;;;;4967132;28;20606;-80
2023/10/18 09:10:46;;;;;;;10.30;9.30;;;11.30;99.90;;;;;;4962739;28;20231;-79
2023/10/18 09:13:33;;;;;;;8.48;7.68;;;11.40;99.90;;;;;;4975054;28;20278;-80
2023/10/18 09:16:11;;;;;;;11.93;9.20;;;11.50;99.90;;;;;;4958177;28;20220;-80
2023/10/18 09:18:40;;;;;;;8.05;7.25;;;11.50;99.90;;;;;;4954854;28;20266;-80
2023/10/18 09:21:17;;;;;;;8.68;7.45;;;11.60;99.90;;;;;;4964839;28;20223;-80
2023/10/18 09:23:49;;;;;;;15.38;8.93;;;11.60;99.90;;;;;;4966172;28;20227;-80
2023/10/18 09:26:26;;;;;;;10.25;9.15;;;11.60;99.90;;;;;;4947471;28;20326;-79
2023/10/18 09:29:03;;;;;;;14.85;10.75;;;11.60;99.90;;;;;;4975085;28;20310;-79
2023/10/18 09:32:03;;;;;;;9.20;8.27;;;11.60;99.90;;;;;;4975570;28;20230;-80
2023/10/18 09:37:15;;;;;;;9.30;7.05;;;11.70;99.90;;;;;;4830058;29;20223;-80
2023/10/18 09:39:46;;;;;;;8.88;8.07;;;11.80;99.90;;;;;;4889088;28;20231;-80
2023/10/18 09:42:20;;;;;;;8.88;8.07;;;11.80;99.90;;;;;;4960623;28;20231;-80
2023/10/18 09:44:56;;;;;;;8.13;7.43;;;11.90;99.90;;;;;;4973706;28;20235;-79
2023/10/18 09:47:28;;;;;;;7.65;6.78;;;11.90;99.90;;;;;;4963787;28;20234;-80
2023/10/18 09:50:06;;;;;;;10.63;7.60;;;12.00;99.90;;;;;;4974766;28;20234;-80
2023/10/18 09:52:47;;;;;;;6.45;5.53;;;12.10;99.90;;;;;;4963688;28;20704;-84
2023/10/18 09:55:20;;;;;;;7.13;6.43;;;12.10;99.90;;;;;;4964189;28;20320;-84
2023/10/18 09:57:59;;;;;;;10.77;6.68;;;12.10;99.90;;;;;;4975166;28;20574;-84
2023/10/18 10:00:36;;;;;;;6.88;6.15;;;12.10;99.90;;;;;;4964202;28;20227;-85
2023/10/18 10:03:09;;;;;;;6.15;5.47;;;12.20;99.90;;;;;;4947391;28;20224;-84
2023/10/18 10:05:45;;;;;;;8.52;6.57;;;12.20;99.90;;;;;;4962875;28;20662;-83
2023/10/18 10:08:14;;;;;;;12.68;6.00;;;12.20;99.90;;;;;;4954097;28;20296;-84
2023/10/18 10:13:49;;;;;;;7.35;6.65;;;12.30;99.90;;;;;;4971518;28;20302;-84
2023/10/18 10:16:24;;;;;;;7.85;7.05;;;12.40;99.90;;;;;;4977393;28;20231;-85
2023/10/18 10:18:53;;;;;;;5.85;5.35;;;12.40;99.90;;;;;;4965548;28;20227;-84
2023/10/18 10:21:23;;;;;;;7.03;6.32;;;12.50;99.90;;;;;;4975516;28;20281;-84
2023/10/18 10:23:55;;;;;;;9.65;6.65;;;12.60;99.90;;;;;;4964731;28;20238;-84
2023/10/18 10:26:27;;;;;;;6.53;5.80;;;12.70;99.90;;;;;;4963371;28;20242;-84
2023/10/18 10:31:56;;;;;;;8.75;6.53;;;12.70;99.90;;;;;;4957995;28;20242;-84
2023/10/18 10:34:30;;;;;;;6.32;5.82;;;12.70;99.90;;;;;;4982990;28;20235;-85
2023/10/18 10:37:11;;;;;;;7.20;6.50;;;12.80;99.90;;;;;;4992840;28;20285;-85
2023/10/18 10:39:44;;;;;;;8.32;6.85;;;12.80;99.90;;;;;;4985381;28;20231;-85
2023/10/18 10:42:27;;;;;;;8.15;6.43;;;12.80;99.90;;;;;;4973515;28;20231;-85
2023/10/18 10:45:06;;;;;;;10.05;6.47;;;12.80;99.90;;;;;;4973918;28;20314;-85
2023/10/18 10:47:50;;;;;;;8.40;7.60;;;12.80;99.90;;;;;;4974221;28;20242;-85
2023/10/18 10:50:59;;;;;;;7.05;6.10;;;12.80;99.90;;;;;;4955652;28;20239;-85
2023/10/18 10:53:32;;;;;;;8.13;5.97;;;12.80;99.90;;;;;;4963203;28;20662;-84
2023/10/18 10:56:16;;;;;;;7.28;5.45;;;12.80;99.90;;;;;;4961520;28;20231;-85
2023/10/18 11:02:07;;;;;;;10.40;6.60;;;12.90;99.90;;;;;;4960291;28;20221;-81
2023/10/18 11:04:57;;;;;;;7.70;6.88;;;12.90;99.90;;;;;;4970715;28;20289;-84
2023/10/18 11:07:29;;;;;;;6.30;5.68;;;12.90;99.90;;;;;;4976421;28;20238;-85
2023/10/18 11:10:06;;;;;;;6.30;5.70;;;13.00;99.90;;;;;;4977690;28;20234;-80
2023/10/18 11:12:45;;;;;;;6.22;5.32;;;13.10;99.90;;;;;;4966350;28;20245;-85
2023/10/18 11:15:16;;;;;;;9.05;6.28;;;13.10;99.90;;;;;;4979827;28;20247;-85
2023/10/18 11:17:45;;;;;;;5.32;4.93;;;13.20;99.90;;;;;;4972273;28;20227;-84
2023/10/18 11:20:30;;;;;;;6.13;5.63;;;13.20;99.90;;;;;;4977376;28;20223;-84
2023/10/18 11:22:57;;;;;;;6.72;5.65;;;13.30;99.90;;;;;;4977976;28;20716;-84
2023/10/18 11:25:33;;;;;;;6.68;5.78;;;13.40;99.90;;;;;;4976914;28;20278;-85
2023/10/18 11:30:45;;;;;;;7.07;5.93;;;13.50;99.90;;;;;;4969094;28;20223;-85
2023/10/18 11:33:19;;;;;;;5.78;5.28;;;13.40;99.90;;;;;;4975986;28;20466;-84
2023/10/18 11:36:02;;;;;;;7.53;5.90;;;13.40;99.90;;;;;;4975913;28;20223;-84
2023/10/18 11:38:35;;;;;;;5.23;4.83;;;13.50;99.90;;;;;;4970345;28;20483;-85
2023/10/18 11:41:11;;;;;;;5.33;4.77;;;13.50;99.90;;;;;;4959387;28;20474;-84
2023/10/18 11:43:41;;;;;;;6.07;5.37;;;13.60;99.90;;;;;;4977186;28;20506;-84
2023/10/18 11:46:42;;;;;;;5.00;4.60;;;13.60;99.90;;;;;;4958035;28;20486;-86
2023/10/18 11:49:20;;;;;;;4.50;4.10;;;13.50;99.90;;;;;;4964017;28;20243;-85
2023/10/18 11:51:57;;;;;;;5.10;4.70;;;13.50;99.90;;;;;;4951276;28;20577;-84
2023/10/18 11:54:37;;;;;;;4.33;4.03;;;13.50;99.90;;;;;;4972930;28;20219;-79
2023/10/18 11:57:25;;;;;;;4.33;3.97;;;13.60;99.90;;;;;;4967067;28;20470;-79
2023/10/18 11:59:56;;;;;;;5.27;4.77;;;13.60;99.90;;;;;;4976457;28;20463;-80
2023/10/18 12:02:43;;;;;;;4.30;3.90;;;13.70;99.90;;;;;;4952318;28;20480;-80
2023/10/18 12:05:23;;;;;;;;;;;;;;;;;;;;;
2023/10/18 12:07:57;;;;;;;7.20;4.40;;;13.70;99.90;;;;;;4975282;28;20478;-79
2023/10/18 12:10:47;;;;;;;4.40;4.00;;;13.70;99.90;;;;;;4965682;28;20882;-80
2023/10/18 12:13:24;;;;;;;4.27;3.97;;;13.70;99.90;;;;;;4947141;28;20223;-84
2023/10/18 12:16:03;;;;;;;4.93;4.53;;;13.60;99.90;;;;;;4961345;28;20921;-84
2023/10/18 12:18:32;;;;;;;5.50;5.00;;;13.70;99.90;;;;;;4975567;28;20474;-80
2023/10/18 12:21:10;;;;;;;4.77;4.37;;;13.80;99.90;;;;;;4974609;28;20462;-83
2023/10/18 12:23:40;;;;;;;5.20;4.70;;;13.70;99.90;;;;;;4970075;28;20497;-84
2023/10/18 12:26:07;;;;;;;7.70;7.00;;;13.70;99.90;;;;;;4975711;28;20479;-79
2023/10/18 12:28:41;;;;;;;5.67;5.17;;;13.70;99.90;;;;;;4966524;28;20983;-80
2023/10/18 12:31:21;;;;;;;4.70;4.20;;;13.80;99.90;;;;;;4965080;28;20467;-80
2023/10/18 12:34:02;;;;;;;5.90;5.10;;;13.90;99.90;;;;;;4956608;28;20491;-81
2023/10/18 12:36:38;;;;;;;6.33;5.07;;;13.80;99.90;;;;;;4968946;28;20494;-80
2023/10/18 12:39:09;;;;;;;6.37;5.70;;;13.80;99.90;;;;;;4962966;28;20478;-81
2023/10/18 12:41:40;;;;;;;7.30;6.47;;;13.80;99.90;;;;;;4974280;28;20878;-79
2023/10/18 12:44:11;;;;;;;5.67;5.27;;;13.80;99.90;;;;;;4939238;28;20471;-81
2023/10/18 12:46:41;;;;;;;5.47;4.97;;;13.80;99.90;;;;;;4976411;28;20481;-80
2023/10/18 12:49:10;;;;;;;5.77;5.10;;;13.80;99.90;;;;;;4975084;28;20486;-80
2023/10/18 12:51:41;;;;;;;6.63;4.97;;;13.90;99.90;;;;;;4969846;28;20474;-79
2023/10/18 12:54:33;;;;;;;8.30;4.80;;;13.90;99.90;;;;;;4980030;23;20451;-80
2023/10/18 12:57:21;;;;;;;4.87;4.47;;;14.00;99.90;;;;;;4951939;28;20786;-80
2023/10/18 13:00:13;;;;;;;4.53;4.17;;;14.00;99.90;;;;;;4982174;28;20468;-80
2023/10/18 13:02:51;;;;;;;8.73;5.40;;;14.10;99.90;;;;;;4974861;28;20470;-80
2023/10/18 13:05:18;;;;;;;6.13;4.50;;;14.10;99.90;;;;;;4975680;28;20523;-80
2023/10/18 13:07:44;;;;;;;4.60;4.30;;;14.10;99.90;;;;;;4966502;28;20481;-80
2023/10/18 13:10:14;;;;;;;5.07;4.67;;;14.10;99.80;;;;;;4972730;28;20478;-80
2023/10/18 13:12:51;;;;;;;5.20;4.53;;;14.20;99.90;;;;;;4971906;28;21056;-80
2023/10/18 13:15:35;;;;;;;5.10;4.10;;;14.10;99.50;;;;;;4966338;28;20489;-80
2023/10/18 13:18:02;;;;;;;5.57;4.90;;;14.10;99.50;;;;;;4944392;28;20469;-80
2023/10/18 13:20:34;;;;;;;6.27;4.13;;;14.00;99.50;;;;;;4969572;28;20471;-81
2023/10/18 13:23:06;;;;;;;6.57;4.93;;;14.00;99.50;;;;;;4957388;28;20550;-79
2023/10/18 13:25:49;;;;;;;6.47;4.80;;;13.90;99.30;;;;;;4971118;28;20483;-79
2023/10/18 13:28:24;;;;;;;5.47;4.80;;;13.90;99.20;;;;;;4942053;28;20471;-80
2023/10/18 13:33:54;;;;;;;5.00;4.50;;;13.90;99.00;;;;;;4958941;28;20513;-80
2023/10/18 13:36:34;;;;;;;9.13;5.73;;;13.90;99.20;;;;;;4954995;28;20480;-79
2023/10/18 13:39:01;;;;;;;5.23;4.37;;;13.90;99.20;;;;;;4970709;28;20960;-79
2023/10/18 13:41:39;;;;;;;6.07;5.43;;;13.90;99.30;;;;;;4976068;28;20471;-81
2023/10/18 13:44:08;;;;;;;4.23;3.93;;;14.00;99.20;;;;;;4975520;28;20471;-80
2023/10/18 13:46:36;;;;;;;6.00;4.40;;;14.00;99.30;;;;;;4986581;28;20538;-80
2023/10/18 13:49:08;;;;;;;4.97;4.23;;;14.00;99.20;;;;;;4981307;28;20474;-81
2023/10/18 13:51:37;;;;;;;6.37;5.40;;;14.10;99.10;;;;;;4992497;28;21047;-84
2023/10/18 13:54:04;;;;;;;6.27;5.47;;;14.00;98.90;;;;;;4983316;28;20482;-84
2023/10/18 13:56:37;;;;;;;6.57;5.00;;;14.10;99.00;;;;;;4973002;28;20482;-84
2023/10/18 13:59:04;;;;;;;4.80;4.00;;;14.00;98.70;;;;;;4975139;28;20479;-84
2023/10/18 14:01:34;;;;;;;7.73;5.27;;;14.10;98.90;;;;;;4974236;28;20481;-84
2023/10/18 14:04:02;;;;;;;6.40;4.90;;;14.00;98.90;;;;;;4975387;28;20945;-83
2023/10/18 14:06:29;;;;;;;4.70;4.40;;;14.00;98.80;;;;;;4974758;28;20476;-79
2023/10/18 14:08:59;;;;;;;5.00;4.03;;;13.90;98.80;;;;;;4972194;28;20479;-79
2023/10/18 14:11:29;;;;;;;5.53;5.00;;;13.90;98.90;;;;;;4975986;28;20491;-79
2023/10/18 14:14:00;;;;;;;4.77;4.27;;;13.90;98.70;;;;;;4974924;28;20478;-79
2023/10/18 14:16:27;;;;;;;4.97;4.47;;;13.80;98.60;;;;;;4973362;28;20489;-79
2023/10/18 14:18:54;;;;;;;4.13;3.83;;;13.80;98.90;;;;;;4977665;28;20475;-79
2023/10/18 14:21:29;;;;;;;5.23;4.50;;;13.80;98.70;;;;;;4974801;28;20466;-78
2023/10/18 14:24:00;;;;;;;4.90;4.50;;;13.80;98.80;;;;;;4973843;28;20477;-79
2023/10/18 14:26:27;;;;;;;5.22;4.72;;;13.80;98.70;;;;;;4972572;28;20566;-78
2023/10/18 14:28:58;;;;;;;4.53;4.17;;;13.80;98.50;;;;;;4976836;28;20228;-83
2023/10/18 14:34:09;;;;;;;6.43;4.93;;;13.80;98.30;;;;;;4979424;28;20274;-83
2023/10/18 14:36:36;;;;;;;5.40;4.90;;;13.80;98.30;;;;;;4982161;28;20819;-83
2023/10/18 14:39:05;;;;;;;4.77;4.07;;;13.70;98.30;;;;;;4967724;28;20611;-84
2023/10/18 14:41:33;;;;;;;5.47;4.97;;;13.70;98.50;;;;;;4965937;28;20479;-80
2023/10/18 14:44:04;;;;;;;5.30;4.40;;;13.70;98.60;;;;;;4981107;28;20466;-80
2023/10/18 14:46:31;;;;;;;6.67;5.40;;;13.70;98.10;;;;;;4976894;28;20223;-79
2023/10/18 14:49:00;;;;;;;7.18;5.10;;;13.70;98.20;;;;;;4980258;28;20498;-79
2023/10/18 14:51:27;;;;;;;6.10;5.50;;;13.70;98.40;;;;;;4982058;28;20301;-79
2023/10/18 14:54:20;;;;;;;5.60;4.23;;;13.70;98.40;;;;;;4979276;28;20247;-84
2023/10/18 14:56:47;;;;;;;6.50;4.82;;;13.60;98.20;;;;;;4987153;28;20482;-83
2023/10/18 14:59:15;;;;;;;6.77;4.73;;;13.60;98.10;;;;;;4980391;28;20307;-83